createdAt,value
2023-05-05T11:21:42.546Z,94469.00
2023-05-05T11:22:42.541Z,94475.00
2023-05-05T11:23:42.557Z,94469.00
2023-05-05T11:24:42.536Z,94469.00
2023-05-05T11:25:42.518Z,94469.00
2023-05-05T11:26:42.534Z,94469.00
2023-05-05T11:27:42.522Z,94468.00
2023-05-05T11:28:42.510Z,94466.00
2023-05-05T11:29:42.507Z,94468.00
2023-05-05T11:30:42.544Z,94464.00
2023-05-05T11:31:42.517Z,94462.00
2023-05-05T11:32:42.542Z,94462.00
2023-05-05T11:33:42.462Z,94458.00
2023-05-05T11:34:42.493Z,94456.00
2023-05-05T11:35:42.480Z,94456.00
2023-05-05T11:36:42.445Z,94456.00
2023-05-05T11:37:42.520Z,94448.00
2023-05-05T11:38:42.452Z,94448.00
2023-05-05T11:39:42.434Z,94446.00
2023-05-05T11:40:42.439Z,94444.00
2023-05-05T11:41:42.445Z,94440.00
2023-05-05T11:42:42.421Z,94442.00
2023-05-05T11:43:42.405Z,94442.00
2023-05-05T11:44:42.406Z,94434.00
2023-05-05T11:45:42.402Z,94434.00
2023-05-05T11:46:42.471Z,94432.00
2023-05-05T11:47:42.421Z,94432.00
2023-05-05T11:48:42.380Z,94432.00
2023-05-05T11:49:42.378Z,94430.00
2023-05-05T11:50:42.392Z,94430.00
2023-05-05T11:51:42.350Z,94426.00
2023-05-05T11:52:42.381Z,94428.00
2023-05-05T11:53:42.374Z,94426.00
2023-05-05T11:54:42.340Z,94426.00
2023-05-05T11:55:42.343Z,94424.00
2023-05-05T11:56:42.344Z,94422.00
2023-05-05T11:57:42.320Z,94418.00
2023-05-05T11:58:42.302Z,94418.00
2023-05-05T11:59:42.364Z,94420.00
2023-05-05T12:00:42.409Z,94417.00
2023-05-05T12:01:42.453Z,94418.00
2023-05-05T12:02:42.559Z,94420.00
2023-05-05T12:03:42.662Z,94413.00
2023-05-05T12:04:42.633Z,94415.00
2023-05-05T12:05:42.644Z,94413.00
2023-05-05T12:06:42.714Z,94411.00
2023-05-05T12:07:42.723Z,94411.00
2023-05-05T12:08:42.782Z,94407.00
2023-05-05T12:09:42.852Z,94409.00
2023-05-05T12:10:42.853Z,94409.00
2023-05-05T12:11:42.893Z,94405.00
2023-05-05T12:12:42.955Z,94409.00
2023-05-05T12:13:42.928Z,94405.00
2023-05-05T12:14:42.939Z,94407.00
2023-05-05T12:15:42.965Z,94403.00
2023-05-05T12:16:43.071Z,94399.00
2023-05-05T12:17:43.085Z,94399.00
2023-05-05T12:18:43.005Z,94399.00
2023-05-05T12:19:43.001Z,94395.00
2023-05-05T12:20:42.982Z,94395.00
2023-05-05T12:21:42.994Z,94395.00
2023-05-05T12:22:42.986Z,94393.00
2023-05-05T12:23:43.008Z,94393.00
2023-05-05T12:24:42.999Z,94393.00
2023-05-05T12:25:43.174Z,94395.00
2023-05-05T12:26:42.991Z,94391.00
2023-05-05T12:27:43.123Z,94387.00
2023-05-05T12:28:43.023Z,94389.00
2023-05-05T12:29:43.035Z,94387.00
2023-05-05T12:30:43.062Z,94387.00
2023-05-05T12:31:43.091Z,94387.00
2023-05-05T12:32:43.165Z,94387.00
2023-05-05T12:33:43.102Z,94385.00
2023-05-05T12:34:43.113Z,94381.00
2023-05-05T12:35:43.149Z,94379.00
2023-05-05T12:36:43.197Z,94377.00
2023-05-05T12:37:43.198Z,94375.00
2023-05-05T12:38:43.225Z,94368.00
2023-05-05T12:39:43.246Z,94375.00
2023-05-05T12:40:43.316Z,94368.00
2023-05-05T12:41:43.438Z,94375.00
2023-05-05T12:42:45.101Z,94364.00
2023-05-05T12:43:43.401Z,94362.00
2023-05-05T12:44:43.403Z,94358.00
2023-05-05T12:45:43.396Z,94364.00
2023-05-05T12:46:43.396Z,94362.00
2023-05-05T12:47:43.433Z,94362.00
2023-05-05T12:48:45.611Z,94358.00
2023-05-05T12:49:43.355Z,94360.00
2023-05-05T12:50:43.359Z,94354.00
2023-05-05T12:51:43.334Z,94354.00
2023-05-05T12:52:43.348Z,94354.00
2023-05-05T12:53:43.323Z,94354.00
2023-05-05T12:54:43.320Z,94352.00
2023-05-05T12:55:43.319Z,94348.00
2023-05-05T12:56:43.299Z,94348.00
2023-05-05T12:57:43.428Z,94344.00
2023-05-05T12:58:43.769Z,94340.00
2023-05-05T12:59:43.291Z,94340.00
2023-05-05T13:00:43.407Z,94340.00
2023-05-05T13:01:43.335Z,94338.00
2023-05-05T13:02:43.371Z,94336.00
2023-05-05T13:03:43.315Z,94334.00
2023-05-05T13:04:43.251Z,94332.00
2023-05-05T13:05:43.227Z,94332.00
2023-05-05T13:06:43.253Z,94326.00
2023-05-05T13:07:43.219Z,94326.00
2023-05-05T13:08:43.293Z,94326.00
2023-05-05T13:09:43.191Z,94324.00
2023-05-05T13:10:43.219Z,94324.00
2023-05-05T13:11:43.195Z,94321.00
2023-05-05T13:12:43.295Z,94317.00
2023-05-05T13:13:43.420Z,94317.00
2023-05-05T13:14:43.367Z,94315.00
2023-05-05T13:15:43.445Z,94313.00
2023-05-05T13:16:43.451Z,94315.00
2023-05-05T13:17:43.564Z,94313.00
2023-05-05T13:18:43.577Z,94313.00
2023-05-05T13:19:43.626Z,94311.00
2023-05-05T13:20:43.674Z,94303.00
2023-05-05T13:21:43.712Z,94305.00
2023-05-05T13:22:43.760Z,94299.00
2023-05-05T13:23:43.818Z,94299.00
2023-05-05T13:24:51.883Z,94297.00
2023-05-05T13:25:44.879Z,94295.00
2023-05-05T13:26:43.857Z,94293.00
2023-05-05T13:27:43.859Z,94293.00
2023-05-05T13:28:43.858Z,94291.00
2023-05-05T13:29:43.898Z,94291.00
2023-05-05T13:30:43.829Z,94287.00
2023-05-05T13:31:43.832Z,94283.00
2023-05-05T13:32:43.865Z,94285.00
2023-05-05T13:33:43.789Z,94283.00
2023-05-05T13:34:43.827Z,94281.00
2023-05-05T13:35:43.865Z,94277.00
2023-05-05T13:36:43.923Z,94275.00
2023-05-05T13:37:43.979Z,94275.00
2023-05-05T13:38:44.029Z,94274.00
2023-05-05T13:39:44.095Z,94272.00
2023-05-05T13:40:44.168Z,94274.00
2023-05-05T13:41:44.225Z,94272.00
2023-05-05T13:42:44.296Z,94270.00
2023-05-05T13:43:44.358Z,94266.00
2023-05-05T13:44:44.425Z,94264.00
2023-05-05T13:45:44.906Z,94260.00
2023-05-05T13:46:44.560Z,94256.00
2023-05-05T13:47:44.673Z,94258.00
2023-05-05T13:48:45.087Z,94254.00
2023-05-05T13:49:44.733Z,94254.00
2023-05-05T13:50:44.769Z,94250.00
2023-05-05T13:51:44.816Z,94246.00
2023-05-05T13:52:44.906Z,94246.00
2023-05-05T13:53:44.959Z,94244.00
2023-05-05T13:54:45.027Z,94244.00
2023-05-05T13:55:45.057Z,94244.00
2023-05-05T13:56:45.101Z,94244.00
2023-05-05T13:57:45.144Z,94240.00
2023-05-05T13:58:45.188Z,94234.00
2023-05-05T13:59:45.229Z,94234.00
2023-05-05T14:00:45.333Z,94232.00
2023-05-05T14:01:45.332Z,94232.00
2023-05-05T14:02:45.360Z,94232.00
2023-05-05T14:03:45.382Z,94228.00
2023-05-05T14:04:45.403Z,94226.00
2023-05-05T14:05:45.457Z,94228.00
2023-05-05T14:06:45.521Z,94228.00
2023-05-05T14:07:45.515Z,94222.00
2023-05-05T14:08:45.564Z,94222.00
2023-05-05T14:09:45.561Z,94219.00
2023-05-05T14:10:47.588Z,94217.00
2023-05-05T14:11:45.621Z,94217.00
2023-05-05T14:12:45.719Z,94219.00
2023-05-05T14:13:45.810Z,94215.00
2023-05-05T14:14:45.674Z,94217.00
2023-05-05T14:15:45.697Z,94213.00
2023-05-05T14:16:47.332Z,94215.00
2023-05-05T14:17:45.836Z,94215.00
2023-05-05T14:18:45.728Z,94211.00
2023-05-05T14:19:45.731Z,94207.00
2023-05-05T14:20:45.810Z,94211.00
2023-05-05T14:21:45.709Z,94207.00
2023-05-05T14:22:47.144Z,94209.00
2023-05-05T14:23:45.726Z,94209.00
2023-05-05T14:24:45.689Z,94207.00
2023-05-05T14:25:45.823Z,94203.00
2023-05-05T14:26:45.700Z,94207.00
2023-05-05T14:27:45.673Z,94203.00
2023-05-05T14:28:46.316Z,94205.00
2023-05-05T14:29:45.675Z,94203.00
2023-05-05T14:30:45.658Z,94201.00
2023-05-05T14:31:45.687Z,94201.00
2023-05-05T14:32:45.645Z,94199.00
2023-05-05T14:33:45.732Z,94199.00
2023-05-05T14:34:46.357Z,94197.00
2023-05-05T14:35:45.601Z,94197.00
2023-05-05T14:36:45.615Z,94195.00
2023-05-05T14:37:45.598Z,94195.00
2023-05-05T14:38:45.640Z,94195.00
2023-05-05T14:39:45.600Z,94191.00
2023-05-05T14:40:45.577Z,94189.00
2023-05-05T14:41:45.603Z,94189.00
2023-05-05T14:42:45.578Z,94185.00
2023-05-05T14:43:45.588Z,94189.00
2023-05-05T14:44:45.613Z,94189.00
2023-05-05T14:45:45.621Z,94185.00
2023-05-05T14:46:46.571Z,94185.00
2023-05-05T14:47:45.655Z,94187.00
2023-05-05T14:48:45.576Z,94185.00
2023-05-05T14:49:45.726Z,94183.00
2023-05-05T14:50:45.617Z,94181.00
2023-05-05T14:51:45.658Z,94179.00
2023-05-05T14:52:45.703Z,94177.00
2023-05-05T14:53:45.722Z,94177.00
2023-05-05T14:54:45.732Z,94185.00
2023-05-05T14:55:45.755Z,94183.00
2023-05-05T14:56:45.729Z,94185.00
2023-05-05T14:57:45.732Z,94185.00
2023-05-05T14:58:47.282Z,94185.00
2023-05-05T14:59:45.787Z,94183.00
2023-05-05T15:00:45.803Z,94183.00
2023-05-05T15:01:45.831Z,94185.00
2023-05-05T15:02:45.821Z,94177.00
2023-05-05T15:03:45.869Z,94179.00
2023-05-05T15:04:46.747Z,94179.00
2023-05-05T15:05:45.848Z,94179.00
2023-05-05T15:06:45.807Z,94181.00
2023-05-05T15:07:45.806Z,94179.00
2023-05-05T15:08:45.824Z,94177.00
2023-05-05T15:09:45.825Z,94179.00
2023-05-05T15:10:45.807Z,94175.00
2023-05-05T15:11:45.896Z,94179.00
2023-05-05T15:12:45.835Z,94177.00
2023-05-05T15:13:45.831Z,94179.00
2023-05-05T15:14:45.837Z,94179.00
2023-05-05T15:15:45.879Z,94177.00
2023-05-05T15:16:45.835Z,94179.00
2023-05-05T15:17:45.929Z,94177.00
2023-05-05T15:18:45.830Z,94179.00
2023-05-05T15:19:45.855Z,94177.00
2023-05-05T15:20:45.840Z,94177.00
2023-05-05T15:21:45.913Z,94179.00
2023-05-05T15:22:46.916Z,94175.00
2023-05-05T15:23:45.877Z,94175.00
2023-05-05T15:24:45.866Z,94175.00
2023-05-05T15:25:45.865Z,94175.00
2023-05-05T15:26:45.891Z,94177.00
2023-05-05T15:27:45.917Z,94173.00
2023-05-05T15:28:46.821Z,94175.00
2023-05-05T15:29:45.919Z,94175.00
2023-05-05T15:30:45.939Z,94173.00
2023-05-05T15:31:45.961Z,94172.00
2023-05-05T15:32:45.959Z,94173.00
2023-05-05T15:33:45.977Z,94170.00
2023-05-05T15:34:47.657Z,94168.00
2023-05-05T15:35:45.955Z,94168.00
2023-05-05T15:36:45.964Z,94170.00
2023-05-05T15:37:45.962Z,94170.00
2023-05-05T15:38:45.982Z,94164.00
2023-05-05T15:39:45.949Z,94168.00
2023-05-05T15:40:47.122Z,94164.00
2023-05-05T15:41:45.907Z,94166.00
2023-05-05T15:42:45.935Z,94166.00
2023-05-05T15:43:45.941Z,94164.00
2023-05-05T15:44:45.892Z,94166.00
2023-05-05T15:45:45.906Z,94160.00
2023-05-05T15:46:46.488Z,94158.00
2023-05-05T15:47:45.944Z,94158.00
2023-05-05T15:48:45.894Z,94154.00
2023-05-05T15:49:45.871Z,94156.00
2023-05-05T15:50:45.884Z,94154.00
2023-05-05T15:51:45.926Z,94152.00
2023-05-05T15:52:47.560Z,94154.00
2023-05-05T15:53:46.054Z,94152.00
2023-05-05T15:54:45.898Z,94152.00
2023-05-05T15:55:45.909Z,94150.00
2023-05-05T15:56:45.890Z,94152.00
2023-05-05T15:57:45.897Z,94148.00
2023-05-05T15:58:45.926Z,94146.00
2023-05-05T15:59:45.902Z,94148.00
2023-05-05T16:00:45.853Z,94146.00
2023-05-05T16:01:45.922Z,94146.00
2023-05-05T16:02:45.923Z,94146.00
2023-05-05T16:03:45.987Z,94146.00
2023-05-05T16:04:45.831Z,94150.00
2023-05-05T16:05:45.833Z,94148.00
2023-05-05T16:06:45.820Z,94148.00
2023-05-05T16:07:45.807Z,94150.00
2023-05-05T16:08:45.840Z,94152.00
2023-05-05T16:09:45.813Z,94154.00
2023-05-05T16:10:45.802Z,94152.00
2023-05-05T16:11:45.795Z,94156.00
2023-05-05T16:12:45.827Z,94162.00
2023-05-05T16:13:45.789Z,94158.00
2023-05-05T16:14:45.774Z,94160.00
2023-05-05T16:15:45.768Z,94162.00
2023-05-05T16:16:45.786Z,94162.00
2023-05-05T16:17:45.838Z,94162.00
2023-05-05T16:18:45.784Z,94162.00
2023-05-05T16:19:45.736Z,94160.00
2023-05-05T16:20:45.734Z,94158.00
2023-05-05T16:21:45.765Z,94156.00
2023-05-05T16:22:45.908Z,94158.00
2023-05-05T16:23:45.744Z,94152.00
2023-05-05T16:24:45.755Z,94156.00
2023-05-05T16:25:45.744Z,94152.00
2023-05-05T16:26:45.690Z,94156.00
2023-05-05T16:27:45.671Z,94154.00
2023-05-05T16:28:45.687Z,94152.00
2023-05-05T16:29:45.682Z,94152.00
2023-05-05T16:30:45.665Z,94154.00
2023-05-05T16:31:45.679Z,94158.00
2023-05-05T16:32:45.713Z,94154.00
2023-05-05T16:33:45.682Z,94156.00
2023-05-05T16:34:45.639Z,94158.00
2023-05-05T16:35:45.733Z,94158.00
2023-05-05T16:36:45.625Z,94154.00
2023-05-05T16:37:45.613Z,94154.00
2023-05-05T16:38:45.625Z,94152.00
2023-05-05T16:39:45.602Z,94150.00
2023-05-05T16:40:45.577Z,94152.00
2023-05-05T16:41:45.591Z,94150.00
2023-05-05T16:42:45.578Z,94154.00
2023-05-05T16:43:45.557Z,94154.00
2023-05-05T16:44:45.559Z,94156.00
2023-05-05T16:45:45.560Z,94156.00
2023-05-05T16:46:45.583Z,94148.00
2023-05-05T16:47:45.557Z,94152.00
2023-05-05T16:48:45.527Z,94152.00
2023-05-05T16:49:45.536Z,94154.00
2023-05-05T16:50:45.523Z,94156.00
2023-05-05T16:51:45.507Z,94166.00
2023-05-05T16:52:45.511Z,94166.00
2023-05-05T16:53:47.563Z,94170.00
2023-05-05T16:54:45.502Z,94170.00
2023-05-05T16:55:45.490Z,94170.00
2023-05-05T16:56:45.495Z,94170.00
2023-05-05T16:57:45.535Z,94173.00
2023-05-05T16:58:45.487Z,94177.00
2023-05-05T16:59:45.480Z,94179.00
2023-05-05T17:00:45.451Z,94172.00
2023-05-05T17:01:45.502Z,94173.00
2023-05-05T17:02:45.485Z,94173.00
2023-05-05T17:03:45.432Z,94172.00
2023-05-05T17:04:45.451Z,94170.00
2023-05-05T17:05:47.184Z,94170.00
2023-05-05T17:06:45.420Z,94173.00
2023-05-05T17:07:45.435Z,94173.00
2023-05-05T17:08:45.396Z,94173.00
2023-05-05T17:09:45.418Z,94173.00
2023-05-05T17:10:45.383Z,94175.00
2023-05-05T17:11:45.391Z,94175.00
2023-05-05T17:12:45.466Z,94173.00
2023-05-05T17:13:45.448Z,94175.00
2023-05-05T17:14:45.389Z,94175.00
2023-05-05T17:15:45.435Z,94175.00
2023-05-05T17:16:45.388Z,94175.00
2023-05-05T17:17:45.389Z,94177.00
2023-05-05T17:18:45.325Z,94177.00
2023-05-05T17:19:45.352Z,94173.00
2023-05-05T17:20:45.344Z,94175.00
2023-05-05T17:21:45.329Z,94175.00
2023-05-05T17:22:45.317Z,94177.00
2023-05-05T17:23:45.307Z,94177.00
2023-05-05T17:24:45.311Z,94177.00
2023-05-05T17:25:45.303Z,94179.00
2023-05-05T17:26:45.288Z,94177.00
2023-05-05T17:27:45.290Z,94173.00
2023-05-05T17:28:45.283Z,94172.00
2023-05-05T17:29:45.334Z,94173.00
2023-05-05T17:30:45.272Z,94175.00
2023-05-05T17:31:45.259Z,94175.00
2023-05-05T17:32:45.291Z,94173.00
2023-05-05T17:33:45.270Z,94173.00
2023-05-05T17:34:45.258Z,94175.00
2023-05-05T17:35:45.233Z,94177.00
2023-05-05T17:36:45.241Z,94177.00
2023-05-05T17:37:45.230Z,94177.00
2023-05-05T17:38:45.212Z,94173.00
2023-05-05T17:39:45.207Z,94173.00
2023-05-05T17:40:45.194Z,94177.00
2023-05-05T17:41:45.198Z,94168.00
2023-05-05T17:42:45.214Z,94168.00
2023-05-05T17:43:45.183Z,94168.00
2023-05-05T17:44:47.006Z,94168.00
2023-05-05T17:45:45.302Z,94166.00
2023-05-05T17:46:45.222Z,94168.00
2023-05-05T17:47:45.284Z,94168.00
2023-05-05T17:48:45.324Z,94168.00
2023-05-05T17:49:45.299Z,94172.00
2023-05-05T17:50:45.308Z,94172.00
2023-05-05T17:51:45.368Z,94173.00
2023-05-05T17:52:45.381Z,94173.00
2023-05-05T17:53:45.382Z,94177.00
2023-05-05T17:54:45.424Z,94177.00
2023-05-05T17:55:45.444Z,94175.00
2023-05-05T17:56:45.479Z,94172.00
2023-05-05T17:57:45.505Z,94173.00
2023-05-05T17:58:45.519Z,94173.00
2023-05-05T17:59:45.553Z,94175.00
2023-05-05T18:00:45.570Z,94177.00
2023-05-05T18:01:45.796Z,94175.00
2023-05-05T18:02:45.742Z,94175.00
2023-05-05T18:03:45.724Z,94173.00
2023-05-05T18:04:45.675Z,94175.00
2023-05-05T18:05:45.721Z,94177.00
2023-05-05T18:06:45.740Z,94177.00
2023-05-05T18:07:45.764Z,94183.00
2023-05-05T18:08:45.770Z,94181.00
2023-05-05T18:09:45.830Z,94183.00
2023-05-05T18:10:45.818Z,94183.00
2023-05-05T18:11:45.858Z,94185.00
2023-05-05T18:12:45.927Z,94187.00
2023-05-05T18:13:45.918Z,94189.00
2023-05-05T18:14:45.939Z,94189.00
2023-05-05T18:15:46.009Z,94191.00
2023-05-05T18:16:45.997Z,94193.00
2023-05-05T18:17:46.074Z,94197.00
2023-05-05T18:18:46.070Z,94205.00
2023-05-05T18:19:48.987Z,94211.00
2023-05-05T18:20:46.103Z,94217.00
2023-05-05T18:21:46.077Z,94220.00
2023-05-05T18:22:46.073Z,94230.00
2023-05-05T18:23:46.058Z,94234.00
2023-05-05T18:24:46.041Z,94240.00
2023-05-05T18:25:46.058Z,94244.00
2023-05-05T18:26:46.038Z,94248.00
2023-05-05T18:27:46.019Z,94252.00
2023-05-05T18:28:46.024Z,94246.00
2023-05-05T18:29:46.023Z,94246.00
2023-05-05T18:30:46.012Z,94248.00
2023-05-05T18:31:46.027Z,94246.00
2023-05-05T18:32:46.029Z,94250.00
2023-05-05T18:33:47.650Z,94250.00
2023-05-05T18:34:45.988Z,94250.00
2023-05-05T18:35:45.979Z,94252.00
2023-05-05T18:36:45.958Z,94256.00
2023-05-05T18:37:45.968Z,94260.00
2023-05-05T18:38:45.957Z,94264.00
2023-05-05T18:39:45.942Z,94262.00
2023-05-05T18:40:45.927Z,94270.00
2023-05-05T18:41:46.016Z,94268.00
2023-05-05T18:42:45.928Z,94274.00
2023-05-05T18:43:45.926Z,94275.00
2023-05-05T18:44:45.918Z,94279.00
2023-05-05T18:45:45.952Z,94279.00
2023-05-05T18:46:45.941Z,94283.00
2023-05-05T18:47:45.918Z,94279.00
2023-05-05T18:48:45.908Z,94283.00
2023-05-05T18:49:45.948Z,94283.00
2023-05-05T18:50:45.958Z,94287.00
2023-05-05T18:51:46.017Z,94289.00
2023-05-05T18:52:46.026Z,94293.00
2023-05-05T18:53:46.071Z,94293.00
2023-05-05T18:54:46.121Z,94297.00
2023-05-05T18:55:46.144Z,94299.00
2023-05-05T18:56:46.188Z,94303.00
2023-05-05T18:57:46.218Z,94307.00
2023-05-05T18:58:46.248Z,94309.00
2023-05-05T18:59:46.300Z,94311.00
2023-05-05T19:00:46.351Z,94315.00
2023-05-05T19:01:46.380Z,94315.00
2023-05-05T19:02:46.436Z,94317.00
2023-05-05T19:03:46.482Z,94317.00
2023-05-05T19:04:46.489Z,94321.00
2023-05-05T19:05:46.616Z,94324.00
2023-05-05T19:06:46.540Z,94330.00
2023-05-05T19:07:46.602Z,94336.00
2023-05-05T19:08:46.618Z,94346.00
2023-05-05T19:09:46.647Z,94352.00
2023-05-05T19:10:46.682Z,94360.00
2023-05-05T19:11:46.737Z,94381.00
2023-05-05T19:12:46.771Z,94389.00
2023-05-05T19:13:46.807Z,94403.00
2023-05-05T19:14:46.832Z,94401.00
2023-05-05T19:15:46.880Z,94409.00
2023-05-05T19:16:46.962Z,94417.00
2023-05-05T19:17:47.015Z,94418.00
2023-05-05T19:18:46.988Z,94417.00
2023-05-05T19:19:47.016Z,94430.00
2023-05-05T19:20:47.062Z,94442.00
2023-05-05T19:21:47.214Z,94446.00
2023-05-05T19:22:47.141Z,94450.00
2023-05-05T19:23:47.165Z,94452.00
2023-05-05T19:24:47.234Z,94450.00
2023-05-05T19:25:47.293Z,94454.00
2023-05-05T19:26:47.310Z,94452.00
2023-05-05T19:27:47.335Z,94462.00
2023-05-05T19:28:47.362Z,94468.00
2023-05-05T19:29:47.418Z,94479.00
2023-05-05T19:30:47.446Z,94481.00
2023-05-05T19:31:47.524Z,94491.00
2023-05-05T19:32:47.562Z,94501.00
2023-05-05T19:33:47.580Z,94509.00
2023-05-05T19:34:47.615Z,94518.00
2023-05-05T19:35:47.664Z,94526.00
2023-05-05T19:36:47.700Z,94530.00
2023-05-05T19:37:47.797Z,94536.00
2023-05-05T19:38:47.777Z,94544.00
2023-05-05T19:39:49.028Z,94546.00
2023-05-05T19:40:47.881Z,94552.00
2023-05-05T19:41:47.909Z,94562.00
2023-05-05T19:42:47.952Z,94565.00
2023-05-05T19:43:47.990Z,94571.00
2023-05-05T19:44:48.062Z,94579.00
2023-05-05T19:45:48.163Z,94581.00
2023-05-05T19:46:48.141Z,94579.00
2023-05-05T19:47:48.207Z,94585.00
2023-05-05T19:48:48.232Z,94595.00
2023-05-05T19:49:48.279Z,94597.00
2023-05-05T19:50:48.336Z,94603.00
2023-05-05T19:51:48.367Z,94607.00
2023-05-05T19:52:48.414Z,94609.00
2023-05-05T19:53:48.480Z,94615.00
2023-05-05T19:54:48.532Z,94613.00
2023-05-05T19:55:48.576Z,94618.00
2023-05-05T19:56:48.626Z,94642.00
2023-05-05T19:57:48.683Z,94650.00
2023-05-05T19:58:48.747Z,94656.00
2023-05-05T19:59:48.778Z,94656.00
2023-05-05T20:00:48.818Z,94663.00
2023-05-05T20:01:48.958Z,94667.00
2023-05-05T20:02:49.027Z,94673.00
2023-05-05T20:03:49.049Z,94673.00
2023-05-05T20:04:48.992Z,94677.00
2023-05-05T20:05:49.078Z,94677.00
2023-05-05T20:06:49.102Z,94677.00
2023-05-05T20:07:49.179Z,94679.00
2023-05-05T20:08:49.246Z,94681.00
2023-05-05T20:09:49.864Z,94687.00
2023-05-05T20:10:49.306Z,94689.00
2023-05-05T20:11:49.378Z,94693.00
2023-05-05T20:12:49.465Z,94701.00
2023-05-05T20:13:49.466Z,94705.00
2023-05-05T20:14:49.513Z,94705.00
2023-05-05T20:15:49.596Z,94711.00
2023-05-05T20:16:49.618Z,94713.00
2023-05-05T20:17:49.727Z,94715.00
2023-05-05T20:18:49.738Z,94715.00
2023-05-05T20:19:49.806Z,94715.00
2023-05-05T20:20:49.849Z,94715.00
2023-05-05T20:21:49.888Z,94707.00
2023-05-05T20:22:49.973Z,94705.00
2023-05-05T20:23:50.006Z,94709.00
2023-05-05T20:24:50.072Z,94703.00
2023-05-05T20:25:50.307Z,94705.00
2023-05-05T20:26:50.182Z,94707.00
2023-05-05T20:27:50.247Z,94703.00
2023-05-05T20:28:50.302Z,94703.00
2023-05-05T20:29:50.396Z,94705.00
2023-05-05T20:30:50.433Z,94701.00
2023-05-05T20:31:50.544Z,94701.00
2023-05-05T20:32:50.552Z,94705.00
2023-05-05T20:33:50.624Z,94707.00
2023-05-05T20:34:50.673Z,94709.00
2023-05-05T20:35:50.735Z,94715.00
2023-05-05T20:36:50.847Z,94711.00
2023-05-05T20:37:50.849Z,94711.00
2023-05-05T20:38:50.922Z,94711.00
2023-05-05T20:39:50.992Z,94713.00
2023-05-05T20:40:51.028Z,94715.00
2023-05-05T20:41:51.183Z,94713.00
2023-05-05T20:42:51.151Z,94713.00
2023-05-05T20:43:51.182Z,94709.00
2023-05-05T20:44:51.259Z,94709.00
2023-05-05T20:45:51.335Z,94707.00
2023-05-05T20:46:51.440Z,94705.00
2023-05-05T20:47:51.456Z,94707.00
2023-05-05T20:48:51.485Z,94705.00
2023-05-05T20:49:51.562Z,94705.00
2023-05-05T20:50:51.610Z,94703.00
2023-05-05T20:51:51.680Z,94705.00
2023-05-05T20:52:51.725Z,94705.00
2023-05-05T20:53:51.790Z,94711.00
2023-05-05T20:54:51.852Z,94713.00
2023-05-05T20:55:51.902Z,94713.00
2023-05-05T20:56:51.975Z,94713.00
2023-05-05T20:57:52.050Z,94713.00
2023-05-05T20:58:52.093Z,94713.00
2023-05-05T20:59:52.166Z,94709.00
2023-05-05T21:00:52.232Z,94707.00
2023-05-05T21:01:52.295Z,94703.00
2023-05-05T21:02:52.423Z,94699.00
2023-05-05T21:03:52.386Z,94695.00
2023-05-05T21:04:52.452Z,94697.00
2023-05-05T21:05:52.561Z,94697.00
2023-05-05T21:06:52.547Z,94697.00
2023-05-05T21:07:52.622Z,94693.00
2023-05-05T21:08:52.662Z,94695.00
2023-05-05T21:09:52.712Z,94687.00
2023-05-05T21:10:52.745Z,94689.00
2023-05-05T21:11:52.808Z,94689.00
2023-05-05T21:12:52.865Z,94695.00
2023-05-05T21:13:52.968Z,94693.00
2023-05-05T21:14:52.935Z,94697.00
2023-05-05T21:15:52.998Z,94699.00
2023-05-05T21:16:53.035Z,94699.00
2023-05-05T21:17:53.052Z,94697.00
2023-05-05T21:18:53.065Z,94697.00
2023-05-05T21:19:53.117Z,94703.00
2023-05-05T21:20:53.134Z,94705.00
2023-05-05T21:21:53.165Z,94711.00
2023-05-05T21:22:53.223Z,94711.00
2023-05-05T21:23:53.240Z,94713.00
2023-05-05T21:24:53.309Z,94709.00
2023-05-05T21:25:53.342Z,94707.00
2023-05-05T21:26:53.349Z,94707.00
2023-05-05T21:27:53.420Z,94707.00
2023-05-05T21:28:53.439Z,94709.00
2023-05-05T21:29:53.541Z,94705.00
2023-05-05T21:31:53.550Z,94701.00
2023-05-05T21:32:53.550Z,94699.00
2023-05-05T21:33:53.518Z,94697.00
2023-05-05T21:34:53.510Z,94695.00
2023-05-05T21:35:53.490Z,94691.00
2023-05-05T21:36:53.480Z,94685.00
2023-05-05T21:37:53.488Z,94683.00
2023-05-05T21:38:53.478Z,94681.00
2023-05-05T21:39:53.474Z,94677.00
2023-05-05T21:40:53.462Z,94677.00
2023-05-05T21:41:53.475Z,94679.00
2023-05-05T21:42:53.460Z,94681.00
2023-05-05T21:43:53.463Z,94685.00
2023-05-05T21:44:53.433Z,94689.00
2023-05-05T21:45:53.499Z,94693.00
2023-05-05T21:46:53.442Z,94693.00
2023-05-05T21:47:53.444Z,94695.00
2023-05-05T21:48:53.423Z,94695.00
2023-05-05T21:49:53.412Z,94693.00
2023-05-05T21:50:53.417Z,94695.00
2023-05-05T21:51:53.383Z,94703.00
2023-05-05T21:52:53.399Z,94701.00
2023-05-05T21:53:53.385Z,94703.00
2023-05-05T21:54:53.387Z,94703.00
2023-05-05T21:55:53.371Z,94707.00
2023-05-05T21:56:53.367Z,94705.00
2023-05-05T21:57:53.342Z,94707.00
2023-05-05T21:58:53.354Z,94709.00
2023-05-05T21:59:53.382Z,94705.00
2023-05-05T22:00:53.358Z,94703.00
2023-05-05T22:01:53.439Z,94701.00
2023-05-05T22:02:53.392Z,94705.00
2023-05-05T22:03:53.462Z,94705.00
2023-05-05T22:04:53.327Z,94707.00
2023-05-05T22:05:53.329Z,94709.00
2023-05-05T22:06:53.301Z,94707.00
2023-05-05T22:07:53.365Z,94707.00
2023-05-05T22:08:53.280Z,94709.00
2023-05-05T22:09:53.267Z,94709.00
2023-05-05T22:10:53.262Z,94711.00
2023-05-05T22:11:53.245Z,94709.00
2023-05-05T22:12:53.264Z,94713.00
2023-05-05T22:13:53.232Z,94713.00
2023-05-05T22:14:53.239Z,94713.00
2023-05-05T22:15:53.249Z,94718.00
2023-05-05T22:16:53.206Z,94718.00
2023-05-05T22:17:53.407Z,94718.00
2023-05-05T22:18:53.207Z,94718.00
2023-05-05T22:19:53.192Z,94722.00
2023-05-05T22:20:53.189Z,94722.00
2023-05-05T22:21:53.192Z,94728.00
2023-05-05T22:22:53.168Z,94736.00
2023-05-05T22:23:53.159Z,94744.00
2023-05-05T22:24:53.178Z,94738.00
2023-05-05T22:25:53.148Z,94738.00
2023-05-05T22:26:53.152Z,94738.00
2023-05-05T22:27:53.144Z,94738.00
2023-05-05T22:28:53.125Z,94740.00
2023-05-05T22:29:53.141Z,94744.00
2023-05-05T22:30:53.107Z,94742.00
2023-05-05T22:31:53.400Z,94744.00
2023-05-05T22:32:53.186Z,94744.00
2023-05-05T22:33:53.092Z,94748.00
2023-05-05T22:34:53.087Z,94748.00
2023-05-05T22:35:53.075Z,94750.00
2023-05-05T22:36:53.080Z,94754.00
2023-05-05T22:37:53.100Z,94754.00
2023-05-05T22:38:53.054Z,94752.00
2023-05-05T22:39:53.046Z,94754.00
2023-05-05T22:40:53.066Z,94754.00
2023-05-05T22:41:53.035Z,94754.00
2023-05-05T22:42:53.047Z,94754.00
2023-05-05T22:43:53.035Z,94754.00
2023-05-05T22:44:53.006Z,94752.00
2023-05-05T22:45:52.999Z,94752.00
2023-05-05T22:46:53.036Z,94754.00
2023-05-05T22:47:53.050Z,94756.00
2023-05-05T22:48:52.974Z,94756.00
2023-05-05T22:49:53.095Z,94754.00
2023-05-05T22:50:52.963Z,94752.00
2023-05-05T22:51:52.971Z,94748.00
2023-05-05T22:52:52.958Z,94746.00
2023-05-05T22:53:52.978Z,94748.00
2023-05-05T22:54:52.956Z,94748.00
2023-05-05T22:55:52.958Z,94744.00
2023-05-05T22:56:52.929Z,94742.00
2023-05-05T22:57:52.923Z,94742.00
2023-05-05T22:58:52.919Z,94742.00
2023-05-05T22:59:52.903Z,94738.00
2023-05-05T23:00:52.942Z,94734.00
2023-05-05T23:01:52.888Z,94734.00
2023-05-05T23:02:52.934Z,94732.00
2023-05-05T23:03:52.946Z,94732.00
2023-05-05T23:04:52.863Z,94730.00
2023-05-05T23:05:53.146Z,94732.00
2023-05-05T23:06:52.850Z,94732.00